createdAt,value
2023-05-06T00:01:20.447Z,10.00
2023-05-06T00:03:48.131Z,12.60
2023-05-06T00:06:15.531Z,11.50
2023-05-06T00:08:42.365Z,11.00
2023-05-06T00:11:09.172Z,14.50
2023-05-06T00:13:36.066Z,10.40
2023-05-06T00:16:02.841Z,12.00
2023-05-06T00:18:29.716Z,12.30
2023-05-06T00:20:56.825Z,13.50
2023-05-06T00:23:23.629Z,12.70
2023-05-06T00:25:50.595Z,10.10
2023-05-06T00:28:17.430Z,14.30
2023-05-06T00:30:44.193Z,15.30
2023-05-06T00:33:11.012Z,12.10
2023-05-06T00:35:37.847Z,10.40
2023-05-06T00:38:10.947Z,11.30
2023-05-06T00:40:38.052Z,12.10
2023-05-06T00:43:04.937Z,11.60
2023-05-06T00:45:32.331Z,14.60
2023-05-06T00:47:59.433Z,12.60
2023-05-06T00:50:28.478Z,12.10
2023-05-06T00:52:58.545Z,11.50
2023-05-06T00:55:26.420Z,13.00
2023-05-06T00:57:53.917Z,12.00
2023-05-06T01:00:21.689Z,9.30
2023-05-06T01:02:49.323Z,12.00
2023-05-06T01:05:18.508Z,13.80
2023-05-06T01:07:53.390Z,12.00
2023-05-06T01:10:38.962Z,10.40
2023-05-06T01:13:14.388Z,12.60
2023-05-06T01:15:46.148Z,14.70
2023-05-06T01:18:22.842Z,12.90
2023-05-06T01:20:53.134Z,11.20
2023-05-06T01:23:20.309Z,10.50
2023-05-06T01:25:47.808Z,12.10
2023-05-06T01:28:14.706Z,10.60
2023-05-06T01:30:53.804Z,10.40
2023-05-06T01:33:43.542Z,13.10
2023-05-06T01:36:20.156Z,13.90
2023-05-06T01:38:52.608Z,11.20
2023-05-06T01:41:21.549Z,12.60
2023-05-06T01:43:49.472Z,10.30
2023-05-06T01:46:20.215Z,10.30
2023-05-06T01:48:49.863Z,10.80
2023-05-06T01:51:16.695Z,9.20
2023-05-06T01:53:43.466Z,10.90
2023-05-06T01:56:10.306Z,11.50
2023-05-06T01:58:37.615Z,9.00
2023-05-06T02:01:04.367Z,11.10
2023-05-06T02:03:31.342Z,9.80
2023-05-06T02:05:58.230Z,9.30
2023-05-06T02:08:25.025Z,9.80
2023-05-06T02:10:52.252Z,12.20
2023-05-06T02:13:19.774Z,12.00
2023-05-06T02:15:46.704Z,11.30
2023-05-06T02:18:13.595Z,12.20
2023-05-06T02:20:40.338Z,11.90
2023-05-06T02:23:07.093Z,9.00
2023-05-06T02:25:33.863Z,11.00
2023-05-06T02:28:00.656Z,12.30
2023-05-06T02:30:30.821Z,12.70
2023-05-06T02:32:58.321Z,11.70
2023-05-06T02:35:25.097Z,9.60
2023-05-06T02:37:51.885Z,10.70
2023-05-06T02:40:18.734Z,12.30
2023-05-06T02:42:46.213Z,10.70
2023-05-06T02:45:13.154Z,9.50
2023-05-06T02:47:40.688Z,12.40
2023-05-06T02:50:07.697Z,10.70
2023-05-06T02:52:35.217Z,10.60
2023-05-06T02:55:02.797Z,11.80
2023-05-06T02:57:29.594Z,9.90
2023-05-06T02:59:56.590Z,11.60
2023-05-06T03:02:23.387Z,11.60
2023-05-06T03:04:50.250Z,11.10
2023-05-06T03:07:17.380Z,11.30
2023-05-06T03:09:44.206Z,11.40
2023-05-06T03:12:11.950Z,11.10
2023-05-06T03:14:39.118Z,10.30
2023-05-06T03:17:06.064Z,11.00
2023-05-06T03:19:32.845Z,10.00
2023-05-06T03:22:00.132Z,11.60
2023-05-06T03:24:26.904Z,10.20
2023-05-06T03:26:53.663Z,11.70
2023-05-06T03:29:20.558Z,11.10
2023-05-06T03:31:51.363Z,10.30
2023-05-06T03:34:18.249Z,9.90
2023-05-06T03:36:46.025Z,10.60
2023-05-06T03:39:12.805Z,10.10
2023-05-06T03:41:39.879Z,12.80
2023-05-06T03:44:06.604Z,12.90
2023-05-06T03:46:33.415Z,12.90
2023-05-06T03:49:00.998Z,13.00
2023-05-06T03:51:27.795Z,11.60
2023-05-06T03:53:55.028Z,11.00
2023-05-06T03:56:22.810Z,11.60
2023-05-06T03:58:49.617Z,12.60
2023-05-06T04:01:18.240Z,11.60
2023-05-06T04:03:45.150Z,10.60
2023-05-06T04:06:12.246Z,12.20
2023-05-06T04:08:39.076Z,11.30
2023-05-06T04:11:06.987Z,11.40
2023-05-06T04:13:35.115Z,10.00
2023-05-06T04:16:03.080Z,9.60
2023-05-06T04:18:30.824Z,12.40
2023-05-06T04:20:57.577Z,9.70
2023-05-06T04:23:24.323Z,10.60
2023-05-06T04:25:51.148Z,9.90
2023-05-06T04:28:17.918Z,10.00
2023-05-06T04:30:45.886Z,13.20
2023-05-06T04:33:13.184Z,13.70
2023-05-06T04:35:41.196Z,10.00
2023-05-06T04:38:07.996Z,9.10
2023-05-06T04:40:36.689Z,11.60
2023-05-06T04:43:04.913Z,11.00
2023-05-06T04:45:32.702Z,10.60
2023-05-06T04:47:59.512Z,13.50
2023-05-06T04:50:26.480Z,10.00
2023-05-06T04:52:53.265Z,10.50
2023-05-06T04:55:20.254Z,11.10
2023-05-06T04:57:47.024Z,9.90
2023-05-06T05:00:14.758Z,10.40
2023-05-06T05:02:43.007Z,12.10
2023-05-06T05:05:11.103Z,8.90
2023-05-06T05:07:38.050Z,10.80
2023-05-06T05:10:05.841Z,10.80
2023-05-06T05:12:32.651Z,11.20
2023-05-06T05:14:59.414Z,11.00
2023-05-06T05:17:26.242Z,10.40
2023-05-06T05:19:53.025Z,11.20
2023-05-06T05:22:19.748Z,10.80
2023-05-06T05:24:47.131Z,12.90
2023-05-06T05:27:13.921Z,10.80
2023-05-06T05:29:40.770Z,11.80
2023-05-06T05:32:07.666Z,8.50
2023-05-06T05:34:34.449Z,9.90
2023-05-06T05:37:01.224Z,10.20
2023-05-06T05:39:28.313Z,10.50
2023-05-06T05:41:55.082Z,12.00
2023-05-06T05:44:21.914Z,10.90
2023-05-06T05:46:51.129Z,9.90
2023-05-06T05:49:18.028Z,10.90
2023-05-06T05:51:45.012Z,12.00
2023-05-06T05:54:11.784Z,9.90
2023-05-06T05:56:38.530Z,11.80
2023-05-06T05:59:05.841Z,9.80
2023-05-06T06:01:32.646Z,10.50
2023-05-06T06:04:00.164Z,13.20
2023-05-06T06:06:27.269Z,11.20
2023-05-06T06:08:54.076Z,9.80
2023-05-06T06:11:21.725Z,11.10
2023-05-06T06:13:48.492Z,10.20
2023-05-06T06:16:15.357Z,11.10
2023-05-06T06:18:42.160Z,11.20
2023-05-06T06:21:08.930Z,7.70
2023-05-06T06:23:35.905Z,10.40
2023-05-06T06:26:04.120Z,10.60
2023-05-06T06:28:31.596Z,10.60
2023-05-06T06:30:58.399Z,9.40
2023-05-06T06:33:25.269Z,12.00
2023-05-06T06:35:51.994Z,12.90
2023-05-06T06:38:18.893Z,9.80
2023-05-06T06:40:45.930Z,10.90
2023-05-06T06:43:12.731Z,14.00
2023-05-06T06:45:39.618Z,15.00
2023-05-06T06:48:06.489Z,10.40
2023-05-06T06:50:33.465Z,9.40
2023-05-06T06:53:00.893Z,12.60
2023-05-06T06:55:28.256Z,12.30
2023-05-06T06:57:55.026Z,7.20
2023-05-06T07:00:22.000Z,8.60
2023-05-06T07:02:49.693Z,8.90
2023-05-06T07:05:16.574Z,11.80
2023-05-06T07:07:43.355Z,14.00
2023-05-06T07:10:10.839Z,11.30
2023-05-06T07:12:37.726Z,10.70
2023-05-06T07:15:06.961Z,10.80
2023-05-06T07:17:33.928Z,11.70
2023-05-06T07:20:00.940Z,9.40
2023-05-06T07:22:29.389Z,10.70
2023-05-06T07:24:56.294Z,12.00
2023-05-06T07:27:24.205Z,10.70
2023-05-06T07:29:51.291Z,10.40
2023-05-06T07:32:18.102Z,11.40
2023-05-06T07:34:44.872Z,8.70
2023-05-06T07:37:11.724Z,11.00
2023-05-06T07:39:38.625Z,10.60
2023-05-06T07:42:05.650Z,11.10
2023-05-06T07:44:32.471Z,10.80
2023-05-06T07:46:59.832Z,9.30
2023-05-06T07:49:28.838Z,10.10
2023-05-06T07:51:55.888Z,12.40
2023-05-06T07:54:23.153Z,9.50
2023-05-06T07:56:50.154Z,12.80
2023-05-06T07:59:16.936Z,14.30
2023-05-06T08:01:43.714Z,11.10
2023-05-06T08:04:10.534Z,9.60
2023-05-06T08:06:37.334Z,10.30
2023-05-06T08:09:04.346Z,10.00
2023-05-06T08:11:31.069Z,12.20
2023-05-06T08:13:58.557Z,11.90
2023-05-06T08:16:31.071Z,11.40
2023-05-06T08:18:57.901Z,9.40
2023-05-06T08:21:24.670Z,11.50
2023-05-06T08:23:52.118Z,11.10
2023-05-06T08:26:18.914Z,9.00
2023-05-06T08:28:45.781Z,10.90
2023-05-06T08:31:12.615Z,10.60
2023-05-06T08:33:39.327Z,9.10
2023-05-06T08:36:06.350Z,12.90
2023-05-06T08:38:33.149Z,9.80
2023-05-06T08:41:08.074Z,9.80
2023-05-06T08:43:42.269Z,12.60
2023-05-06T08:46:09.875Z,10.50
2023-05-06T08:48:37.596Z,8.70
2023-05-06T08:51:04.777Z,9.90
2023-05-06T08:53:33.702Z,9.90
2023-05-06T08:56:07.881Z,11.90
2023-05-06T08:58:36.054Z,10.20
2023-05-06T09:01:04.308Z,10.10
2023-05-06T09:03:31.896Z,8.50
2023-05-06T09:05:58.895Z,9.50
2023-05-06T09:08:25.906Z,13.50
2023-05-06T09:10:53.091Z,7.80
2023-05-06T09:13:20.055Z,13.20
2023-05-06T09:15:49.208Z,9.00
2023-05-06T09:18:16.931Z,12.50
2023-05-06T09:20:46.562Z,9.70
2023-05-06T09:23:16.056Z,10.90
2023-05-06T09:28:12.339Z,10.40
2023-05-06T09:30:41.368Z,9.10
2023-05-06T09:33:08.851Z,10.40
2023-05-06T09:35:41.064Z,8.30
2023-05-06T09:38:08.985Z,11.20
2023-05-06T09:40:39.649Z,9.80
2023-05-06T09:43:06.928Z,9.60
2023-05-06T09:45:33.967Z,9.50
2023-05-06T09:48:01.236Z,13.10
2023-05-06T09:50:28.884Z,8.00
2023-05-06T09:52:56.723Z,12.70
2023-05-06T09:55:26.996Z,7.80
2023-05-06T09:57:55.643Z,13.60
2023-05-06T10:00:28.350Z,11.80
2023-05-06T10:02:56.175Z,9.80
2023-05-06T10:05:34.685Z,12.00
2023-05-06T10:08:02.287Z,10.70
2023-05-06T10:10:29.921Z,12.90
2023-05-06T10:12:57.124Z,11.80
2023-05-06T10:15:26.323Z,10.00
2023-05-06T10:17:54.089Z,10.00
2023-05-06T10:20:24.358Z,11.40
2023-05-06T10:23:20.660Z,11.70
2023-05-06T10:25:52.096Z,12.50
2023-05-06T10:28:23.907Z,11.10
2023-05-06T10:30:54.271Z,12.30
2023-05-06T10:33:24.412Z,9.60
2023-05-06T10:36:04.191Z,9.70
2023-05-06T10:38:42.556Z,8.10
2023-05-06T10:41:15.139Z,10.90
2023-05-06T10:44:04.501Z,8.30
2023-05-06T10:46:31.794Z,9.70
2023-05-06T10:49:04.766Z,9.50
2023-05-06T10:51:33.243Z,8.70
2023-05-06T10:54:05.939Z,8.40
2023-05-06T10:56:59.602Z,10.20
2023-05-06T10:59:31.581Z,9.50
2023-05-06T11:02:20.286Z,8.30
2023-05-06T11:04:53.213Z,7.80
2023-05-06T11:07:24.400Z,9.80
2023-05-06T11:10:01.713Z,8.80
2023-05-06T11:12:53.000Z,10.70
2023-05-06T11:15:36.327Z,13.70
2023-05-06T11:18:30.031Z,9.10
2023-05-06T11:21:02.883Z,12.30
2023-05-06T11:23:49.718Z,14.70
2023-05-06T11:26:16.908Z,11.20
2023-05-06T11:28:46.235Z,11.60
2023-05-06T11:31:14.809Z,13.70
2023-05-06T11:33:55.248Z,14.40
2023-05-06T11:36:22.160Z,8.60
2023-05-06T11:38:53.285Z,11.10
2023-05-06T11:41:22.192Z,14.10
2023-05-06T11:43:50.381Z,12.20
2023-05-06T11:46:21.517Z,13.20
2023-05-06T11:48:48.925Z,14.90
2023-05-06T11:51:16.320Z,13.80
2023-05-06T11:53:43.115Z,11.60
2023-05-06T11:56:09.921Z,10.30
2023-05-06T11:58:36.686Z,15.60
2023-05-06T12:01:04.734Z,13.50
2023-05-06T12:03:33.554Z,13.30
2023-05-06T12:06:01.343Z,12.60
2023-05-06T12:08:33.906Z,14.10
2023-05-06T12:11:08.579Z,12.70
2023-05-06T12:13:40.908Z,12.60
2023-05-06T12:16:08.652Z,14.90
2023-05-06T12:18:36.361Z,15.50
2023-05-06T12:21:03.817Z,13.40
2023-05-06T12:23:30.697Z,14.60
2023-05-06T12:26:04.332Z,23.40
2023-05-06T12:28:33.161Z,18.90
2023-05-06T12:31:00.954Z,17.30
2023-05-06T12:33:28.047Z,17.60
2023-05-06T12:36:07.639Z,16.50
2023-05-06T12:41:01.040Z,14.00
2023-05-06T12:43:31.534Z,14.30
2023-05-06T12:46:07.411Z,15.70
2023-05-06T12:48:34.666Z,14.20
2023-05-06T12:51:17.008Z,14.50
2023-05-06T12:53:43.748Z,15.40
2023-05-06T12:56:10.481Z,17.00
2023-05-06T12:58:38.273Z,18.40
2023-05-06T13:01:06.485Z,18.40
2023-05-06T13:03:38.391Z,16.70
2023-05-06T13:06:05.924Z,16.00
2023-05-06T13:08:32.942Z,17.40
2023-05-06T13:11:01.804Z,17.00
2023-05-06T13:13:28.860Z,16.00
2023-05-06T13:15:55.992Z,17.10
2023-05-06T13:18:22.868Z,15.70
2023-05-06T13:20:51.049Z,17.90
2023-05-06T13:23:19.721Z,17.60
2023-05-06T13:26:02.917Z,16.90
2023-05-06T13:28:33.339Z,17.60
2023-05-06T13:31:00.397Z,17.10
2023-05-06T13:33:27.420Z,18.20
2023-05-06T13:35:54.321Z,17.50
2023-05-06T13:38:21.436Z,17.90
2023-05-06T13:40:53.193Z,19.00
2023-05-06T13:43:21.211Z,19.60
2023-05-06T13:45:48.015Z,16.10
2023-05-06T13:48:15.400Z,17.70
2023-05-06T13:50:43.594Z,18.10
2023-05-06T13:53:11.296Z,21.40
2023-05-06T13:55:38.981Z,20.00
2023-05-06T13:58:07.098Z,19.70
2023-05-06T14:00:36.261Z,24.40
2023-05-06T14:03:03.601Z,23.70
2023-05-06T14:05:30.780Z,20.40
2023-05-06T14:07:57.699Z,23.70
2023-05-06T14:10:25.042Z,25.80
2023-05-06T14:12:52.040Z,22.00
2023-05-06T14:15:18.965Z,20.90
2023-05-06T14:17:46.083Z,19.80
2023-05-06T14:20:12.919Z,17.80
2023-05-06T14:22:41.540Z,19.70
2023-05-06T14:25:09.542Z,21.60
2023-05-06T14:27:36.768Z,20.20
2023-05-06T14:30:09.448Z,21.10
2023-05-06T14:32:37.577Z,22.90
2023-05-06T14:35:04.993Z,27.90
2023-05-06T14:37:31.830Z,29.40
2023-05-06T14:39:58.528Z,24.30
2023-05-06T14:42:25.497Z,20.50
2023-05-06T14:44:52.255Z,21.40
2023-05-06T14:47:19.055Z,21.50
2023-05-06T14:49:45.989Z,20.00
2023-05-06T14:52:13.034Z,20.00
2023-05-06T14:54:43.058Z,22.20
2023-05-06T14:57:10.926Z,19.10
2023-05-06T14:59:38.806Z,21.60
2023-05-06T15:02:09.208Z,20.80
2023-05-06T15:04:37.368Z,20.30
2023-05-06T15:07:04.665Z,27.80
2023-05-06T15:09:31.562Z,27.20
2023-05-06T15:11:59.014Z,23.50
2023-05-06T15:14:26.085Z,20.20
2023-05-06T15:16:57.521Z,19.50
2023-05-06T15:19:24.830Z,16.90
2023-05-06T15:21:51.664Z,21.00
2023-05-06T15:24:18.678Z,18.30
2023-05-06T15:26:45.618Z,25.10
2023-05-06T15:29:12.960Z,21.50
2023-05-06T15:31:41.283Z,20.90
2023-05-06T15:34:10.782Z,24.30
2023-05-06T15:36:38.842Z,22.40
2023-05-06T15:39:05.835Z,24.00
2023-05-06T15:41:34.359Z,23.30
2023-05-06T15:46:43.593Z,23.60
2023-05-06T15:49:39.531Z,24.40
2023-05-06T15:52:00.499Z,22.00
2023-05-06T15:54:29.017Z,25.10
2023-05-06T15:56:56.585Z,25.60
2023-05-06T15:59:23.940Z,24.90
2023-05-06T16:02:24.522Z,23.30
2023-05-06T16:04:37.978Z,24.70
2023-05-06T16:07:05.243Z,25.50
2023-05-06T16:09:32.055Z,25.60
2023-05-06T16:11:59.265Z,26.50
2023-05-06T16:14:25.999Z,25.30
2023-05-06T16:16:52.750Z,26.50
2023-05-06T16:19:19.935Z,26.00
2023-05-06T16:21:46.859Z,27.00
2023-05-06T16:24:13.994Z,26.90
2023-05-06T16:26:41.689Z,28.50
2023-05-06T16:29:08.625Z,29.30
2023-05-06T16:31:35.540Z,27.40
2023-05-06T16:34:02.736Z,29.50
2023-05-06T16:36:29.576Z,27.70
2023-05-06T16:38:56.539Z,29.70
2023-05-06T16:41:23.813Z,29.00
2023-05-06T16:43:50.949Z,27.80
2023-05-06T16:46:18.057Z,29.40
2023-05-06T16:48:44.990Z,26.00
2023-05-06T16:51:13.809Z,25.90
2023-05-06T16:53:40.844Z,29.80
2023-05-06T16:56:07.950Z,30.00
2023-05-06T16:58:35.240Z,31.60
2023-05-06T17:01:02.022Z,29.60
2023-05-06T17:03:29.120Z,29.50
2023-05-06T17:05:55.907Z,29.50
2023-05-06T17:08:24.518Z,32.50
2023-05-06T17:10:53.681Z,29.10
2023-05-06T17:13:20.600Z,31.10
2023-05-06T17:15:47.352Z,27.50
2023-05-06T17:18:14.396Z,31.40
2023-05-06T17:20:54.475Z,29.40
2023-05-06T17:23:23.931Z,31.00
2023-05-06T17:25:51.632Z,29.10
2023-05-06T17:28:19.047Z,30.00
2023-05-06T17:30:46.803Z,31.80
2023-05-06T17:33:13.690Z,27.00
2023-05-06T17:35:40.503Z,31.20
2023-05-06T17:38:08.089Z,30.00
2023-05-06T17:40:34.934Z,31.30
2023-05-06T17:43:01.849Z,33.20
2023-05-06T17:45:29.746Z,31.80
2023-05-06T17:47:57.093Z,30.70
2023-05-06T17:50:24.506Z,31.00
2023-05-06T17:52:53.698Z,34.00
2023-05-06T17:55:24.244Z,29.40
2023-05-06T17:57:52.857Z,30.20
2023-05-06T18:00:20.038Z,33.30
2023-05-06T18:02:47.200Z,33.60
2023-05-06T18:05:14.327Z,31.10
2023-05-06T18:07:41.327Z,30.70
2023-05-06T18:10:09.016Z,28.10
2023-05-06T18:12:36.776Z,30.50
2023-05-06T18:15:03.911Z,27.90
2023-05-06T18:17:30.819Z,30.60
2023-05-06T18:19:57.885Z,29.30
2023-05-06T18:22:24.826Z,27.60
2023-05-06T18:25:07.457Z,26.50
2023-05-06T18:27:35.008Z,27.80
2023-05-06T18:30:03.189Z,27.80
2023-05-06T18:32:30.005Z,27.30
2023-05-06T18:34:56.797Z,28.00
2023-05-06T18:37:23.796Z,28.70
2023-05-06T18:39:50.651Z,30.50
2023-05-06T18:42:17.603Z,26.70
2023-05-06T18:44:44.596Z,28.10
2023-05-06T18:47:12.008Z,29.60
2023-05-06T18:49:39.177Z,28.40
2023-05-06T18:52:06.436Z,27.80
2023-05-06T18:54:33.522Z,27.90
2023-05-06T18:57:01.446Z,31.30
2023-05-06T18:59:28.407Z,30.10
2023-05-06T19:01:55.301Z,30.00
2023-05-06T19:04:22.314Z,29.10
2023-05-06T19:06:49.923Z,28.40
2023-05-06T19:09:16.902Z,29.30
2023-05-06T19:11:44.122Z,29.10
2023-05-06T19:14:11.138Z,30.30
2023-05-06T19:16:37.923Z,33.40
2023-05-06T19:19:07.503Z,42.10
2023-05-06T19:21:40.285Z,34.90
2023-05-06T19:24:07.277Z,33.60
2023-05-06T19:26:34.242Z,30.10
2023-05-06T19:29:01.245Z,27.80
2023-05-06T19:31:28.236Z,28.90
2023-05-06T19:33:55.334Z,29.30
2023-05-06T19:36:22.549Z,28.20
2023-05-06T19:38:49.438Z,31.10
2023-05-06T19:41:16.410Z,27.90
2023-05-06T19:43:44.534Z,29.00
2023-05-06T19:46:12.327Z,27.50
2023-05-06T19:48:39.713Z,27.60
2023-05-06T19:51:07.569Z,26.40
2023-05-06T19:53:34.751Z,29.50
2023-05-06T19:56:12.747Z,25.00
2023-05-06T19:58:40.200Z,28.00
2023-05-06T20:01:07.099Z,26.60
2023-05-06T20:03:35.768Z,27.40
2023-05-06T20:06:03.481Z,27.60
2023-05-06T20:08:31.575Z,25.80
2023-05-06T20:10:58.674Z,28.20
2023-05-06T20:13:28.380Z,27.80
2023-05-06T20:18:21.975Z,25.00
2023-05-06T20:20:48.971Z,22.50
2023-05-06T20:23:15.766Z,24.70
2023-05-06T20:25:42.915Z,25.80
2023-05-06T20:28:10.129Z,23.70
2023-05-06T20:30:39.161Z,23.10
2023-05-06T20:33:06.087Z,26.30
2023-05-06T20:35:38.357Z,24.70
2023-05-06T20:38:06.262Z,24.50
2023-05-06T20:40:35.823Z,24.60
2023-05-06T20:45:31.165Z,24.80
2023-05-06T20:47:58.545Z,25.50
2023-05-06T20:50:26.098Z,25.60
2023-05-06T20:52:54.564Z,24.80
2023-05-06T20:55:23.665Z,27.30
2023-05-06T20:57:51.461Z,26.20
2023-05-06T21:00:19.198Z,28.70
2023-05-06T21:02:46.351Z,29.20
2023-05-06T21:05:13.868Z,27.50
2023-05-06T21:07:42.961Z,29.00
2023-05-06T21:10:11.244Z,28.70
2023-05-06T21:12:39.396Z,27.50
2023-05-06T21:15:07.001Z,35.00
2023-05-06T21:17:34.085Z,31.10
2023-05-06T21:20:01.434Z,37.60
2023-05-06T21:22:29.031Z,28.60
2023-05-06T21:24:56.348Z,29.60
2023-05-06T21:27:23.392Z,30.60
2023-05-06T21:29:50.370Z,27.80
2023-05-06T21:32:17.436Z,26.70
2023-05-06T21:34:44.222Z,25.60
2023-05-06T21:37:12.314Z,24.10
2023-05-06T21:39:39.089Z,25.00
2023-05-06T21:42:06.027Z,24.20
2023-05-06T21:44:33.021Z,23.60
2023-05-06T21:46:59.975Z,22.70
2023-05-06T21:49:26.860Z,23.40
2023-05-06T21:51:53.751Z,21.70
2023-05-06T21:54:21.238Z,21.90
2023-05-06T21:56:48.145Z,22.60
2023-05-06T21:59:15.075Z,23.20
2023-05-06T22:01:41.922Z,24.40
2023-05-06T22:04:12.996Z,27.90
2023-05-06T22:06:40.695Z,26.20
2023-05-06T22:09:09.881Z,24.80
2023-05-06T22:11:40.660Z,26.30
2023-05-06T22:14:08.034Z,25.40
2023-05-06T22:16:35.806Z,23.00
2023-05-06T22:19:05.704Z,22.10
2023-05-06T22:21:49.346Z,21.80
2023-05-06T22:24:16.994Z,22.40
2023-05-06T22:26:43.975Z,29.70
2023-05-06T22:29:11.020Z,21.10
2023-05-06T22:31:38.385Z,22.30
2023-05-06T22:34:05.395Z,21.10
2023-05-06T22:36:35.098Z,21.60
2023-05-06T22:41:30.722Z,18.20
2023-05-06T22:43:57.630Z,22.00
2023-05-06T22:46:24.451Z,20.00
2023-05-06T22:48:51.957Z,20.20
2023-05-06T22:51:21.242Z,19.60
2023-05-06T22:53:48.229Z,21.90
2023-05-06T22:56:15.224Z,21.70
2023-05-06T22:58:41.975Z,19.70
2023-05-06T23:01:09.015Z,19.60
2023-05-06T23:03:36.359Z,20.20
2023-05-06T23:06:04.702Z,20.00
2023-05-06T23:08:31.831Z,17.80
2023-05-06T23:10:58.683Z,17.90
2023-05-06T23:13:26.797Z,16.90
2023-05-06T23:15:53.880Z,17.50
2023-05-06T23:18:21.852Z,16.40
2023-05-06T23:20:48.894Z,17.40
2023-05-06T23:23:15.804Z,16.20
2023-05-06T23:25:42.762Z,16.60
2023-05-06T23:28:09.664Z,19.50
2023-05-06T23:30:36.648Z,16.20
2023-05-06T23:33:04.243Z,15.30
2023-05-06T23:35:31.159Z,16.20
2023-05-06T23:37:58.110Z,16.20
2023-05-06T23:40:24.953Z,17.20
2023-05-06T23:42:51.890Z,17.60
2023-05-06T23:45:20.043Z,16.10
2023-05-06T23:47:47.021Z,18.40
2023-05-06T23:50:14.395Z,15.60
2023-05-06T23:52:41.604Z,16.40
2023-05-06T23:55:08.881Z,15.80
2023-05-06T23:57:36.028Z,16.30
